createdAt,value
2022-09-21T00:00:59.880Z,81.35
2022-09-21T00:01:56.927Z,81.29
2022-09-21T00:02:56.834Z,81.39
2022-09-21T00:03:56.845Z,81.39
2022-09-21T00:04:56.813Z,81.39
2022-09-21T00:05:56.793Z,81.49
2022-09-21T00:06:56.799Z,81.60
2022-09-21T00:07:56.766Z,81.60
2022-09-21T00:08:56.745Z,81.64
2022-09-21T00:09:56.776Z,81.43
2022-09-21T00:10:56.746Z,81.43
2022-09-21T00:11:58.378Z,81.43
2022-09-21T00:12:56.689Z,81.43
2022-09-21T00:13:56.711Z,81.33
2022-09-21T00:14:56.679Z,81.33
2022-09-21T00:15:56.679Z,81.23
2022-09-21T00:16:56.705Z,81.33
2022-09-21T00:17:56.617Z,81.23
2022-09-21T00:18:56.655Z,81.02
2022-09-21T00:19:59.588Z,80.91
2022-09-21T00:20:59.589Z,80.81
2022-09-21T00:21:56.569Z,80.81
2022-09-21T00:22:56.549Z,80.71
2022-09-21T00:23:56.541Z,80.60
2022-09-21T00:24:56.576Z,80.60
2022-09-21T00:25:56.510Z,80.71
2022-09-21T00:26:56.508Z,80.81
2022-09-21T00:27:56.481Z,80.91
2022-09-21T00:28:56.527Z,81.02
2022-09-21T00:29:56.453Z,81.12
2022-09-21T00:30:56.463Z,81.23
2022-09-21T00:31:56.514Z,81.23
2022-09-21T00:32:56.409Z,81.33
2022-09-21T00:33:56.401Z,81.23
2022-09-21T00:34:56.385Z,81.12
2022-09-21T00:35:56.393Z,81.12
2022-09-21T00:36:56.374Z,81.02
2022-09-21T00:37:56.343Z,80.91
2022-09-21T00:38:56.334Z,80.81
2022-09-21T00:39:59.355Z,80.60
2022-09-21T00:40:59.364Z,80.05
2022-09-21T00:41:56.284Z,79.94
2022-09-21T00:42:56.275Z,79.94
2022-09-21T00:43:56.295Z,80.05
2022-09-21T00:44:56.235Z,80.05
2022-09-21T00:45:56.249Z,80.15
2022-09-21T00:46:56.284Z,80.26
2022-09-21T00:47:56.202Z,80.40
2022-09-21T00:48:56.185Z,80.36
2022-09-21T00:49:56.175Z,80.50
2022-09-21T00:50:56.155Z,80.60
2022-09-21T00:51:56.145Z,80.71
2022-09-21T00:52:56.154Z,80.71
2022-09-21T00:53:56.116Z,80.71
2022-09-21T00:54:56.095Z,80.71
2022-09-21T00:55:56.086Z,80.81
2022-09-21T00:56:56.078Z,80.81
2022-09-21T00:57:56.084Z,81.02
2022-09-21T00:58:56.192Z,81.02
2022-09-21T00:59:59.031Z,81.23
2022-09-21T01:00:59.044Z,81.23
2022-09-21T01:01:56.058Z,81.33
2022-09-21T01:02:56.051Z,81.33
2022-09-21T01:03:55.969Z,81.33
2022-09-21T01:04:55.959Z,81.33
2022-09-21T01:05:55.950Z,81.33
2022-09-21T01:06:55.929Z,81.23
2022-09-21T01:07:55.919Z,81.23
2022-09-21T01:08:55.928Z,81.12
2022-09-21T01:09:55.892Z,81.12
2022-09-21T01:10:55.870Z,81.12
2022-09-21T01:11:55.860Z,81.12
2022-09-21T01:12:55.915Z,81.02
2022-09-21T01:13:55.834Z,81.02
2022-09-21T01:14:55.820Z,81.02
2022-09-21T01:15:55.801Z,81.23
2022-09-21T01:16:55.791Z,81.23
2022-09-21T01:17:55.792Z,81.26
2022-09-21T01:18:55.812Z,81.26
2022-09-21T01:19:58.764Z,81.37
2022-09-21T01:20:58.752Z,81.47
2022-09-21T01:21:55.721Z,81.47
2022-09-21T01:22:55.710Z,81.47
2022-09-21T01:23:55.697Z,81.37
2022-09-21T01:24:55.702Z,81.47
2022-09-21T01:25:55.665Z,81.37
2022-09-21T01:26:55.666Z,81.26
2022-09-21T01:27:55.677Z,81.26
2022-09-21T01:28:55.645Z,81.30
2022-09-21T01:29:55.615Z,81.30
2022-09-21T01:30:55.613Z,81.30
2022-09-21T01:31:55.586Z,81.30
2022-09-21T01:32:55.564Z,81.30
2022-09-21T01:33:55.586Z,81.30
2022-09-21T01:34:55.554Z,81.09
2022-09-21T01:35:55.526Z,81.09
2022-09-21T01:36:55.508Z,81.09
2022-09-21T01:37:55.497Z,80.99
2022-09-21T01:38:55.696Z,80.99
2022-09-21T01:39:58.542Z,81.09
2022-09-21T01:40:58.466Z,81.09
2022-09-21T01:41:55.448Z,81.30
2022-09-21T01:42:55.436Z,81.40
2022-09-21T01:43:55.418Z,81.61
2022-09-21T01:44:55.452Z,81.61
2022-09-21T01:45:55.418Z,81.61
2022-09-21T01:46:55.377Z,81.65
2022-09-21T01:47:55.367Z,81.75
2022-09-21T01:48:55.350Z,81.65
2022-09-21T01:49:55.338Z,81.65
2022-09-21T01:50:55.348Z,81.75
2022-09-21T01:51:55.326Z,81.75
2022-09-21T01:52:55.293Z,81.75
2022-09-21T01:53:55.280Z,81.65
2022-09-21T01:54:55.289Z,81.54
2022-09-21T01:55:55.265Z,81.44
2022-09-21T01:56:55.242Z,81.44
2022-09-21T01:57:55.231Z,81.48
2022-09-21T01:58:55.305Z,81.48
2022-09-21T01:59:58.220Z,81.23
2022-09-21T02:00:58.262Z,81.34
2022-09-21T02:01:55.219Z,81.37
2022-09-21T02:02:55.182Z,81.37
2022-09-21T02:03:55.145Z,81.37
2022-09-21T02:04:55.131Z,81.37
2022-09-21T02:05:55.126Z,81.37
2022-09-21T02:06:55.102Z,81.27
2022-09-21T02:07:55.082Z,81.37
2022-09-21T02:08:55.104Z,81.37
2022-09-21T02:09:55.061Z,81.16
2022-09-21T02:10:55.062Z,81.37
2022-09-21T02:11:55.033Z,81.27
2022-09-21T02:12:55.024Z,81.16
2022-09-21T02:13:55.063Z,81.37
2022-09-21T02:14:55.009Z,81.27
2022-09-21T02:15:55.013Z,81.27
2022-09-21T02:16:54.974Z,81.37
2022-09-21T02:17:54.994Z,81.37
2022-09-21T02:18:54.976Z,81.27
2022-09-21T02:19:57.925Z,81.37
2022-09-21T02:20:57.949Z,81.37
2022-09-21T02:21:54.907Z,81.37
2022-09-21T02:22:54.919Z,81.37
2022-09-21T02:23:54.878Z,81.48
2022-09-21T02:24:54.890Z,81.48
2022-09-21T02:25:54.878Z,81.48
2022-09-21T02:26:54.838Z,81.58
2022-09-21T02:27:54.827Z,81.62
2022-09-21T02:28:54.848Z,81.62
2022-09-21T02:29:54.829Z,81.62
2022-09-21T02:30:54.798Z,81.62
2022-09-21T02:31:54.777Z,81.51
2022-09-21T02:32:54.769Z,81.62
2022-09-21T02:33:54.779Z,81.62
2022-09-21T02:34:54.738Z,81.51
2022-09-21T02:35:54.721Z,81.51
2022-09-21T02:36:54.718Z,81.62
2022-09-21T02:37:54.697Z,81.72
2022-09-21T02:38:54.710Z,81.72
2022-09-21T02:39:57.679Z,81.62
2022-09-21T02:40:57.700Z,81.51
2022-09-21T02:41:54.647Z,81.41
2022-09-21T02:42:54.639Z,81.20
2022-09-21T02:43:54.740Z,81.20
2022-09-21T02:44:54.643Z,81.10
2022-09-21T02:45:54.590Z,80.99
2022-09-21T02:46:54.620Z,81.10
2022-09-21T02:47:54.560Z,81.10
2022-09-21T02:48:54.558Z,81.20
2022-09-21T02:49:54.712Z,81.30
2022-09-21T02:50:54.531Z,81.41
2022-09-21T02:51:54.530Z,81.30
2022-09-21T02:52:54.501Z,81.41
2022-09-21T02:53:54.544Z,81.51
2022-09-21T02:54:54.474Z,81.41
2022-09-21T02:55:56.616Z,81.41
2022-09-21T02:56:54.480Z,81.41
2022-09-21T02:57:54.445Z,81.41
2022-09-21T02:58:54.427Z,81.41
2022-09-21T02:59:57.410Z,81.41
2022-09-21T03:00:57.426Z,81.41
2022-09-21T03:01:54.440Z,81.41
2022-09-21T03:02:54.385Z,81.51
2022-09-21T03:03:54.364Z,81.51
2022-09-21T03:04:54.350Z,81.56
2022-09-21T03:05:54.329Z,81.62
2022-09-21T03:06:54.348Z,81.66
2022-09-21T03:07:54.326Z,81.66
2022-09-21T03:08:54.298Z,81.76
2022-09-21T03:09:54.275Z,81.97
2022-09-21T03:10:54.268Z,81.87
2022-09-21T03:11:54.258Z,81.97
2022-09-21T03:12:54.266Z,81.87
2022-09-21T03:13:54.226Z,81.97
2022-09-21T03:14:54.206Z,81.97
2022-09-21T03:15:54.226Z,81.87
2022-09-21T03:16:54.237Z,81.87
2022-09-21T03:17:54.167Z,81.76
2022-09-21T03:18:54.169Z,81.87
2022-09-21T03:19:57.138Z,81.87
2022-09-21T03:20:57.148Z,81.87
2022-09-21T03:21:54.119Z,81.87
2022-09-21T03:22:54.139Z,81.87
2022-09-21T03:23:54.088Z,81.87
2022-09-21T03:24:54.079Z,81.87
2022-09-21T03:25:54.068Z,81.76
2022-09-21T03:26:54.088Z,81.76
2022-09-21T03:27:54.043Z,81.87
2022-09-21T03:28:54.097Z,81.90
2022-09-21T03:29:54.039Z,81.90
2022-09-21T03:30:54.036Z,81.90
2022-09-21T03:31:53.997Z,81.90
2022-09-21T03:32:53.982Z,81.90
2022-09-21T03:33:53.962Z,81.90
2022-09-21T03:34:54.014Z,81.90
2022-09-21T03:35:53.931Z,81.80
2022-09-21T03:36:53.921Z,81.80
2022-09-21T03:37:53.911Z,81.70
2022-09-21T03:38:53.916Z,81.59
2022-09-21T03:39:56.917Z,81.70
2022-09-21T03:40:56.882Z,81.80
2022-09-21T03:41:53.864Z,81.80
2022-09-21T03:42:53.842Z,81.80
2022-09-21T03:43:53.852Z,81.90
2022-09-21T03:44:53.872Z,81.90
2022-09-21T03:45:53.806Z,81.80
2022-09-21T03:46:53.794Z,81.80
2022-09-21T03:47:53.793Z,81.70
2022-09-21T03:48:53.763Z,81.63
2022-09-21T03:49:53.753Z,81.73
2022-09-21T03:50:53.781Z,81.73
2022-09-21T03:51:53.744Z,81.63
2022-09-21T03:52:53.715Z,81.63
2022-09-21T03:53:53.695Z,81.63
2022-09-21T03:54:53.684Z,81.52
2022-09-21T03:55:53.673Z,81.52
2022-09-21T03:56:53.698Z,81.52
2022-09-21T03:57:53.642Z,81.52
2022-09-21T03:58:53.626Z,81.52
2022-09-21T03:59:56.615Z,81.52
2022-09-21T04:00:56.625Z,81.52
2022-09-21T04:01:53.680Z,81.42
2022-09-21T04:02:53.601Z,81.63
2022-09-21T04:03:53.558Z,81.63
2022-09-21T04:04:53.547Z,81.63
2022-09-21T04:05:53.537Z,81.63
2022-09-21T04:06:53.527Z,81.73
2022-09-21T04:07:53.528Z,81.73
2022-09-21T04:08:53.497Z,81.84
2022-09-21T04:09:53.478Z,81.84
2022-09-21T04:10:53.480Z,81.84
2022-09-21T04:11:53.499Z,81.84
2022-09-21T04:12:53.449Z,81.94
2022-09-21T04:13:53.428Z,81.94
2022-09-21T04:14:53.421Z,81.94
2022-09-21T04:15:53.433Z,82.04
2022-09-21T04:16:53.389Z,82.15
2022-09-21T04:17:53.403Z,82.18
2022-09-21T04:18:53.403Z,82.18
2022-09-21T04:19:56.349Z,82.18
2022-09-21T04:20:56.350Z,82.18
2022-09-21T04:21:53.323Z,82.08
2022-09-21T04:22:53.310Z,82.08
2022-09-21T04:23:53.295Z,82.08
2022-09-21T04:24:53.311Z,81.98
2022-09-21T04:25:53.268Z,81.98
2022-09-21T04:26:53.259Z,81.87
2022-09-21T04:27:53.242Z,81.87
2022-09-21T04:28:53.252Z,81.77
2022-09-21T04:29:53.211Z,81.77
2022-09-21T04:30:53.268Z,81.77
2022-09-21T04:31:53.193Z,81.77
2022-09-21T04:32:53.178Z,81.67
2022-09-21T04:33:53.160Z,81.77
2022-09-21T04:34:53.153Z,81.67
2022-09-21T04:35:53.132Z,81.87
2022-09-21T04:36:53.164Z,81.98
2022-09-21T04:37:53.103Z,81.87
2022-09-21T04:38:53.094Z,81.87
2022-09-21T04:39:56.075Z,81.98
2022-09-21T04:40:56.075Z,81.98
2022-09-21T04:41:53.074Z,81.87
2022-09-21T04:42:53.043Z,81.87
2022-09-21T04:43:53.033Z,81.87
2022-09-21T04:44:53.016Z,81.98
2022-09-21T04:45:53.071Z,82.08
2022-09-21T04:46:53.034Z,81.98
2022-09-21T04:47:53.002Z,81.98
2022-09-21T04:48:52.957Z,81.98
2022-09-21T04:49:52.944Z,81.98
2022-09-21T04:50:52.936Z,82.08
2022-09-21T04:51:52.916Z,81.98
2022-09-21T04:52:52.938Z,82.08
2022-09-21T04:53:52.887Z,82.18
2022-09-21T04:54:52.877Z,82.08
2022-09-21T04:55:52.857Z,82.18
2022-09-21T04:56:52.858Z,82.08
2022-09-21T04:57:52.857Z,82.18
2022-09-21T04:58:52.826Z,82.18
2022-09-21T04:59:55.799Z,82.18
2022-09-21T05:00:55.809Z,82.18
2022-09-21T05:01:52.888Z,82.08
2022-09-21T05:02:52.809Z,82.32
2022-09-21T05:03:52.786Z,82.32
2022-09-21T05:04:52.739Z,82.32
2022-09-21T05:05:52.728Z,82.32
2022-09-21T05:06:52.718Z,82.32
2022-09-21T05:07:52.700Z,82.32
2022-09-21T05:08:52.720Z,82.32
2022-09-21T05:09:52.697Z,82.12
2022-09-21T05:10:52.661Z,82.01
2022-09-21T05:11:52.640Z,82.12
2022-09-21T05:12:52.630Z,81.98
2022-09-21T05:13:52.621Z,81.98
2022-09-21T05:14:52.790Z,81.87
2022-09-21T05:15:52.651Z,81.87
2022-09-21T05:16:52.581Z,81.87
2022-09-21T05:17:52.564Z,81.98
2022-09-21T05:18:52.552Z,81.98
2022-09-21T05:19:55.561Z,82.08
2022-09-21T05:20:55.543Z,82.08
2022-09-21T05:21:52.513Z,82.18
2022-09-21T05:22:52.499Z,82.18
2022-09-21T05:24:01.369Z,82.18
2022-09-21T05:24:52.499Z,82.18
2022-09-21T05:25:52.482Z,82.29
2022-09-21T05:26:52.458Z,82.29
2022-09-21T05:27:52.458Z,82.39
2022-09-21T05:28:52.476Z,82.39
2022-09-21T05:29:52.420Z,82.29
2022-09-21T05:31:14.134Z,82.29
2022-09-21T05:31:53.456Z,82.29
2022-09-21T05:32:52.409Z,82.29
2022-09-21T05:33:52.380Z,82.29
2022-09-21T05:34:52.408Z,82.15
2022-09-21T05:35:52.350Z,82.15
2022-09-21T05:36:52.363Z,82.25
2022-09-21T05:37:52.353Z,82.35
2022-09-21T05:38:52.311Z,82.42
2022-09-21T05:39:55.300Z,82.53
2022-09-21T05:40:55.311Z,82.63
2022-09-21T05:41:52.263Z,82.73
2022-09-21T05:42:52.432Z,82.73
2022-09-21T05:43:52.265Z,82.73
2022-09-21T05:44:52.213Z,82.73
2022-09-21T05:45:52.258Z,82.73
2022-09-21T05:46:56.073Z,82.63
2022-09-21T05:47:52.193Z,82.63
2022-09-21T05:48:52.373Z,82.53
2022-09-21T05:49:52.150Z,82.53
2022-09-21T05:50:52.166Z,82.59
2022-09-21T05:51:52.124Z,82.70
2022-09-21T05:52:52.117Z,82.70
2022-09-21T05:53:52.155Z,82.70
2022-09-21T05:54:52.097Z,82.70
2022-09-21T05:55:52.078Z,82.70
2022-09-21T05:56:52.050Z,82.70
2022-09-21T05:57:52.055Z,82.70
2022-09-21T05:58:52.043Z,82.59
2022-09-21T05:59:55.035Z,82.59
2022-09-21T06:00:55.104Z,82.59
2022-09-21T06:01:51.998Z,82.59
2022-09-21T06:02:51.984Z,82.55
2022-09-21T06:03:51.979Z,82.45
2022-09-21T06:04:51.999Z,82.34
2022-09-21T06:05:51.934Z,82.34
2022-09-21T06:06:51.934Z,82.24
2022-09-21T06:07:51.917Z,82.10
2022-09-21T06:08:51.908Z,81.99
2022-09-21T06:09:51.907Z,81.99
2022-09-21T06:10:51.887Z,81.99
2022-09-21T06:11:51.856Z,81.89
2022-09-21T06:12:51.858Z,81.85
2022-09-21T06:13:51.854Z,81.85
2022-09-21T06:14:51.848Z,81.85
2022-09-21T06:15:51.840Z,81.85
2022-09-21T06:16:52.566Z,81.85
2022-09-21T06:17:51.808Z,81.75
2022-09-21T06:18:51.758Z,81.71
2022-09-21T06:19:54.767Z,81.71
2022-09-21T06:20:54.789Z,81.71
2022-09-21T06:21:51.740Z,81.71
2022-09-21T06:22:51.720Z,81.71
2022-09-21T06:23:51.758Z,81.71
2022-09-21T06:24:51.698Z,81.68
2022-09-21T06:25:55.935Z,81.68
2022-09-21T06:26:52.662Z,81.68
2022-09-21T06:27:51.641Z,81.68
2022-09-21T06:28:51.633Z,81.68
2022-09-21T06:29:51.668Z,81.57
2022-09-21T06:30:51.643Z,81.57
2022-09-21T06:31:51.612Z,81.47
2022-09-21T06:32:51.593Z,81.33
2022-09-21T06:33:51.596Z,81.33
2022-09-21T06:34:51.581Z,81.23
2022-09-21T06:35:51.553Z,81.23
2022-09-21T06:36:51.532Z,81.12
2022-09-21T06:37:51.524Z,81.02
2022-09-21T06:38:51.514Z,80.98
2022-09-21T06:39:54.516Z,80.88
2022-09-21T06:40:54.573Z,80.98
2022-09-21T06:41:51.455Z,80.88
2022-09-21T06:42:51.496Z,80.88
2022-09-21T06:43:51.456Z,80.74
2022-09-21T06:44:51.464Z,80.63
2022-09-21T06:45:51.461Z,80.63
2022-09-21T06:46:51.429Z,80.63
2022-09-21T06:47:51.376Z,80.53
2022-09-21T06:48:51.357Z,80.53
2022-09-21T06:49:51.348Z,80.43
2022-09-21T06:50:51.353Z,80.39
2022-09-21T06:51:51.398Z,80.39
2022-09-21T06:52:51.309Z,80.29
2022-09-21T06:53:51.305Z,80.29
2022-09-21T06:54:51.296Z,80.18
2022-09-21T06:55:51.286Z,80.18
2022-09-21T06:56:51.254Z,80.04
2022-09-21T06:57:51.390Z,80.04
2022-09-21T06:58:51.236Z,80.04
2022-09-21T06:59:54.277Z,79.94
2022-09-21T07:00:54.311Z,79.83
2022-09-21T07:01:51.247Z,79.83
2022-09-21T07:02:51.168Z,79.80
2022-09-21T07:03:51.210Z,79.69
2022-09-21T07:04:51.153Z,79.69
2022-09-21T07:05:51.149Z,79.69
2022-09-21T07:06:51.152Z,79.59
2022-09-21T07:07:53.801Z,79.45
2022-09-21T07:10:09.216Z,79.35
2022-09-21T07:10:52.057Z,79.35
2022-09-21T07:11:51.081Z,79.25
2022-09-21T07:12:51.031Z,79.31
2022-09-21T07:13:51.031Z,79.21
2022-09-21T07:14:51.011Z,79.11
2022-09-21T07:15:53.328Z,79.11
2022-09-21T07:16:50.992Z,79.07
2022-09-21T07:17:52.244Z,78.97
2022-09-21T07:18:50.942Z,79.07
2022-09-21T07:19:53.941Z,79.07
2022-09-21T07:20:54.012Z,78.93
2022-09-21T07:21:50.922Z,78.83
2022-09-21T07:22:50.918Z,78.83
2022-09-21T07:23:50.894Z,78.83
2022-09-21T07:24:50.883Z,78.89
2022-09-21T07:25:50.894Z,78.69
2022-09-21T07:26:50.874Z,78.79
2022-09-21T07:27:50.834Z,78.38
2022-09-21T07:28:50.844Z,78.55
2022-09-21T07:29:50.890Z,78.14
2022-09-21T07:30:50.820Z,78.14
2022-09-21T07:31:50.870Z,78.24
2022-09-21T07:32:50.817Z,77.89
2022-09-21T07:33:50.806Z,77.89
2022-09-21T07:34:50.739Z,78.00
2022-09-21T07:35:50.768Z,77.96
2022-09-21T07:36:50.745Z,77.96
2022-09-21T07:37:50.707Z,77.96
2022-09-21T07:38:50.676Z,77.96
2022-09-21T07:39:53.727Z,77.92
2022-09-21T07:40:53.687Z,77.92
2022-09-21T07:41:50.654Z,77.62
2022-09-21T07:42:50.658Z,77.72
2022-09-21T07:43:50.619Z,77.37
2022-09-21T07:44:51.237Z,77.48
2022-09-21T07:45:51.476Z,77.48
2022-09-21T07:46:50.598Z,77.55
2022-09-21T07:47:50.579Z,77.55
2022-09-21T07:48:50.568Z,77.13
2022-09-21T07:49:50.534Z,77.13
2022-09-21T07:50:50.519Z,77.10
2022-09-21T07:51:50.551Z,77.10
2022-09-21T07:52:50.502Z,76.68
2022-09-21T07:53:50.481Z,76.34
2022-09-21T07:54:50.487Z,76.55
2022-09-21T07:55:50.531Z,76.55
2022-09-21T07:56:50.451Z,76.51
2022-09-21T07:57:50.440Z,76.20
2022-09-21T07:58:50.429Z,76.20
2022-09-21T07:59:53.403Z,76.17
2022-09-21T08:00:53.438Z,75.86
2022-09-21T08:01:50.471Z,75.73
2022-09-21T08:02:50.429Z,75.82
2022-09-21T08:03:50.358Z,75.73
2022-09-21T08:04:50.351Z,75.31
2022-09-21T08:05:50.316Z,75.07
2022-09-21T08:06:50.327Z,75.18
2022-09-21T08:07:50.331Z,75.48
2022-09-21T08:08:55.092Z,75.35
2022-09-21T08:09:51.319Z,75.35
2022-09-21T08:10:50.393Z,74.94
2022-09-21T08:11:50.237Z,74.80
2022-09-21T08:12:50.254Z,74.80
2022-09-21T08:13:50.235Z,74.66
2022-09-21T08:14:50.285Z,74.76
2022-09-21T08:15:50.539Z,74.66
2022-09-21T08:16:50.197Z,74.97
2022-09-21T08:17:50.177Z,74.73
2022-09-21T08:18:50.236Z,74.93
2022-09-21T08:19:53.188Z,75.04
2022-09-21T08:20:53.128Z,75.21
2022-09-21T08:21:54.811Z,74.90
2022-09-21T08:22:51.110Z,75.10
2022-09-21T08:23:50.078Z,75.00
2022-09-21T08:24:50.078Z,75.17
2022-09-21T08:25:50.070Z,75.17
2022-09-21T08:26:50.039Z,75.07
2022-09-21T08:27:50.050Z,75.34
2022-09-21T08:28:50.067Z,75.95
2022-09-21T08:29:49.998Z,76.16
2022-09-21T08:30:50.010Z,76.16
2022-09-21T08:31:50.042Z,76.26
2022-09-21T08:32:51.836Z,75.82
2022-09-21T08:33:50.101Z,76.02
2022-09-21T08:34:49.936Z,75.78
2022-09-21T08:35:49.964Z,75.98
2022-09-21T08:36:55.079Z,76.19
2022-09-21T08:37:50.923Z,76.19
2022-09-21T08:38:49.872Z,76.25
2022-09-21T08:39:52.875Z,77.27
2022-09-21T08:40:52.905Z,78.19
2022-09-21T08:41:49.853Z,79.00
2022-09-21T08:42:50.878Z,79.72
2022-09-21T08:43:49.824Z,80.74
2022-09-21T08:44:49.844Z,80.74
2022-09-21T08:45:49.796Z,81.01
2022-09-21T08:46:49.976Z,80.40
2022-09-21T08:47:49.776Z,80.40
2022-09-21T08:48:49.747Z,81.01
2022-09-21T08:49:49.746Z,81.38
2022-09-21T08:50:49.726Z,81.48
2022-09-21T08:51:49.706Z,81.68
2022-09-21T08:52:49.735Z,81.58
2022-09-21T08:53:49.707Z,81.79
2022-09-21T08:54:49.659Z,81.85
2022-09-21T08:55:49.648Z,81.85
2022-09-21T08:57:04.362Z,81.74
2022-09-21T08:57:50.628Z,81.74
2022-09-21T08:58:49.609Z,81.71
2022-09-21T08:59:52.619Z,82.01
2022-09-21T09:00:52.605Z,82.73
2022-09-21T09:01:49.641Z,82.93
2022-09-21T09:02:49.599Z,82.73
2022-09-21T09:03:49.582Z,83.03
2022-09-21T09:04:49.530Z,83.74
2022-09-21T09:05:49.510Z,83.50
2022-09-21T09:06:49.552Z,83.91
2022-09-21T09:07:49.491Z,83.70
2022-09-21T09:08:49.471Z,84.11
2022-09-21T09:09:49.481Z,83.97
2022-09-21T09:10:49.454Z,84.78
2022-09-21T09:11:49.413Z,84.99
2022-09-21T09:12:49.453Z,84.88
2022-09-21T09:13:49.413Z,84.28
2022-09-21T09:14:49.384Z,84.48
2022-09-21T09:15:49.404Z,84.38
2022-09-21T09:16:49.358Z,84.48
2022-09-21T09:17:49.375Z,84.74
2022-09-21T09:18:49.342Z,85.66
2022-09-21T09:19:52.316Z,85.05
2022-09-21T09:20:52.317Z,85.25
2022-09-21T09:21:49.309Z,85.46
2022-09-21T09:22:49.313Z,85.35
2022-09-21T09:23:49.296Z,85.96
2022-09-21T09:24:49.264Z,85.76
2022-09-21T09:25:49.238Z,85.76
2022-09-21T09:26:49.246Z,86.13
2022-09-21T09:27:49.229Z,86.02
2022-09-21T09:28:53.068Z,85.92
2022-09-21T09:29:49.471Z,85.62
2022-09-21T09:30:49.158Z,85.07
2022-09-21T09:31:49.235Z,85.98
2022-09-21T09:32:49.166Z,85.88
2022-09-21T09:33:49.310Z,85.58
2022-09-21T09:34:49.143Z,85.58
2022-09-21T09:35:49.118Z,85.58
2022-09-21T09:37:04.097Z,85.84
2022-09-21T09:37:50.071Z,85.33
2022-09-21T09:38:49.050Z,85.74
2022-09-21T09:39:52.102Z,85.94
2022-09-21T09:40:52.124Z,85.90
2022-09-21T09:41:49.060Z,86.21
2022-09-21T09:42:49.033Z,86.31
2022-09-21T09:43:49.054Z,85.90
2022-09-21T09:44:48.991Z,86.37
2022-09-21T09:45:49.066Z,85.96
2022-09-21T09:46:48.973Z,86.07
2022-09-21T09:47:48.998Z,85.86
2022-09-21T09:48:53.939Z,85.96
2022-09-21T09:49:49.912Z,86.57
2022-09-21T09:50:48.932Z,86.07
2022-09-21T09:51:48.895Z,85.82
2022-09-21T09:52:48.875Z,85.93
2022-09-21T09:53:48.926Z,86.08
2022-09-21T09:54:48.879Z,86.08
2022-09-21T09:55:48.938Z,85.78
2022-09-21T09:56:48.847Z,86.29
2022-09-21T09:57:48.825Z,86.29
2022-09-21T09:58:48.786Z,86.29
2022-09-21T09:59:54.452Z,86.08
2022-09-21T10:00:51.836Z,85.78
2022-09-21T10:01:48.813Z,85.99
2022-09-21T10:02:48.727Z,86.25
2022-09-21T10:03:48.779Z,85.74
2022-09-21T10:04:48.810Z,85.84
2022-09-21T10:05:48.900Z,86.05
2022-09-21T10:06:48.680Z,85.50
2022-09-21T10:07:48.681Z,85.60
2022-09-21T10:08:48.640Z,85.30
2022-09-21T10:09:48.639Z,84.99
2022-09-21T10:10:48.623Z,84.99
2022-09-21T10:11:48.672Z,85.13
2022-09-21T10:12:48.594Z,85.24
2022-09-21T10:13:48.602Z,85.50
2022-09-21T10:14:48.564Z,85.50
2022-09-21T10:15:48.766Z,85.76
2022-09-21T10:16:48.535Z,85.96
2022-09-21T10:17:48.524Z,85.96
2022-09-21T10:18:48.525Z,85.62
2022-09-21T10:19:51.505Z,84.81
2022-09-21T10:20:51.540Z,85.17
2022-09-21T10:21:51.968Z,85.28
2022-09-21T10:22:48.490Z,85.17
2022-09-21T10:23:48.485Z,85.28
2022-09-21T10:24:48.450Z,85.31
2022-09-21T10:25:48.464Z,85.82
2022-09-21T10:26:48.419Z,85.22
2022-09-21T10:27:48.393Z,85.52
2022-09-21T10:28:48.480Z,85.52
2022-09-21T10:29:48.368Z,85.72
2022-09-21T10:30:48.370Z,84.81
2022-09-21T10:31:48.408Z,85.11
2022-09-21T10:32:48.311Z,85.25
2022-09-21T10:33:48.309Z,84.95
2022-09-21T10:34:48.300Z,85.10
2022-09-21T10:35:48.279Z,85.10
2022-09-21T10:36:48.309Z,85.30
2022-09-21T10:37:48.258Z,85.54
2022-09-21T10:38:48.234Z,85.84
2022-09-21T10:39:51.225Z,85.84
2022-09-21T10:40:51.281Z,85.84
2022-09-21T10:41:48.213Z,85.70
2022-09-21T10:42:48.177Z,85.56
2022-09-21T10:43:48.192Z,85.76
2022-09-21T10:44:48.152Z,85.42
2022-09-21T10:45:48.149Z,84.20
2022-09-21T10:46:48.653Z,84.57
2022-09-21T10:47:48.156Z,84.67
2022-09-21T10:48:48.093Z,84.63
2022-09-21T10:49:48.086Z,84.43
2022-09-21T10:50:48.067Z,84.63
2022-09-21T10:51:48.058Z,84.39
2022-09-21T10:52:48.038Z,83.38
2022-09-21T10:53:49.953Z,82.47
2022-09-21T10:54:48.028Z,81.73
2022-09-21T10:55:58.517Z,80.31
2022-09-21T10:56:48.998Z,79.30
2022-09-21T10:57:48.008Z,79.47
2022-09-21T10:58:47.979Z,77.95
2022-09-21T10:59:50.948Z,76.00
2022-09-21T11:00:50.950Z,72.78
2022-09-21T11:01:47.979Z,74.99
2022-09-21T11:02:47.962Z,74.15
2022-09-21T11:03:47.902Z,71.03
2022-09-21T11:04:47.889Z,71.06
2022-09-21T11:05:47.892Z,72.67
2022-09-21T11:06:47.856Z,74.90
2022-09-21T11:07:47.883Z,76.51
2022-09-21T11:08:47.874Z,77.21
2022-09-21T11:09:47.853Z,75.10
2022-09-21T11:10:47.843Z,76.31
2022-09-21T11:11:47.807Z,71.47
2022-09-21T11:12:47.796Z,73.99
2022-09-21T11:13:47.785Z,74.15
2022-09-21T11:14:47.814Z,74.15
2022-09-21T11:15:47.762Z,73.65
2022-09-21T11:16:47.736Z,74.73
2022-09-21T11:17:47.716Z,71.91
2022-09-21T11:18:47.705Z,69.25
2022-09-21T11:19:50.728Z,62.94
2022-09-21T11:20:50.687Z,64.92
2022-09-21T11:21:47.658Z,68.15
2022-09-21T11:22:47.658Z,66.80
2022-09-21T11:23:47.643Z,65.90
2022-09-21T11:24:54.771Z,65.87
2022-09-21T11:25:47.591Z,63.65
2022-09-21T11:26:47.585Z,61.34
2022-09-21T11:27:47.581Z,60.11
2022-09-21T11:28:47.552Z,58.33
2022-09-21T11:29:47.533Z,59.16
2022-09-21T11:30:48.866Z,58.35
2022-09-21T11:31:47.503Z,59.48
2022-09-21T11:32:47.503Z,58.88
2022-09-21T11:33:47.486Z,60.83
2022-09-21T11:34:47.474Z,62.30
2022-09-21T11:35:47.462Z,63.01
2022-09-21T11:36:47.485Z,61.10
2022-09-21T11:37:47.427Z,62.91
2022-09-21T11:38:47.420Z,62.84
2022-09-21T11:39:50.396Z,63.17
2022-09-21T11:40:50.407Z,64.41
2022-09-21T11:41:47.396Z,61.61
2022-09-21T11:42:47.370Z,62.43
2022-09-21T11:43:47.339Z,65.62
2022-09-21T11:44:47.333Z,63.07
2022-09-21T11:45:50.537Z,59.95
2022-09-21T11:46:47.330Z,60.65
2022-09-21T11:47:47.321Z,64.01
2022-09-21T11:48:47.299Z,64.28
2022-09-21T11:49:47.260Z,62.49
2022-09-21T11:50:47.266Z,63.90
2022-09-21T11:51:47.279Z,61.39
2022-09-21T11:52:47.963Z,61.79
2022-09-21T11:53:47.251Z,65.19
2022-09-21T11:54:47.214Z,62.46
2022-09-21T11:55:47.163Z,61.05
2022-09-21T11:56:47.163Z,65.76
2022-09-21T11:57:49.557Z,69.56
2022-09-21T11:58:47.166Z,70.12
2022-09-21T11:59:50.113Z,67.81
2022-09-21T12:00:50.118Z,64.49
2022-09-21T12:01:47.086Z,65.90
2022-09-21T12:02:47.329Z,62.01
2022-09-21T12:03:47.064Z,63.24
2022-09-21T12:04:47.098Z,64.41
2022-09-21T12:05:47.026Z,66.73
2022-09-21T12:06:47.027Z,65.62
2022-09-21T12:07:46.997Z,67.07
2022-09-21T12:08:46.988Z,72.71
2022-09-21T12:09:46.968Z,73.32
2022-09-21T12:10:46.992Z,75.03
2022-09-21T12:11:46.940Z,67.80
2022-09-21T12:12:46.989Z,68.01
2022-09-21T12:13:46.925Z,74.87
2022-09-21T12:14:46.903Z,73.15
2022-09-21T12:15:46.890Z,74.96
2022-09-21T12:16:46.910Z,71.94
2022-09-21T12:17:46.857Z,76.38
2022-09-21T12:18:46.884Z,72.20
2022-09-21T12:19:49.826Z,70.76
2022-09-21T12:20:49.833Z,69.65
2022-09-21T12:21:46.794Z,63.90
2022-09-21T12:22:46.792Z,64.81
2022-09-21T12:23:46.787Z,65.49
2022-09-21T12:24:46.790Z,67.40
2022-09-21T12:25:46.767Z,65.06
2022-09-21T12:26:46.735Z,67.57
2022-09-21T12:27:46.741Z,67.74
2022-09-21T12:28:46.698Z,69.85
2022-09-21T12:29:46.739Z,65.90
2022-09-21T12:30:46.705Z,67.71
2022-09-21T12:31:46.659Z,66.47
2022-09-21T12:32:46.669Z,67.78
2022-09-21T12:33:46.634Z,66.87
2022-09-21T12:34:46.633Z,59.80
2022-09-21T12:35:46.679Z,60.00
2022-09-21T12:36:46.592Z,62.02
2022-09-21T12:37:46.583Z,60.71
2022-09-21T12:38:46.571Z,62.08
2022-09-21T12:39:49.553Z,61.29
2022-09-21T12:40:49.718Z,62.79
2022-09-21T12:41:46.527Z,66.78
2022-09-21T12:42:46.529Z,63.46
2022-09-21T12:43:46.502Z,60.58
2022-09-21T12:44:46.496Z,63.70
2022-09-21T12:45:46.598Z,62.59
2022-09-21T12:46:46.476Z,62.59
2022-09-21T12:47:46.447Z,59.78
2022-09-21T12:48:46.439Z,61.99
2022-09-21T12:49:46.416Z,62.59
2022-09-21T12:50:46.408Z,58.07
2022-09-21T12:51:46.418Z,57.59
2022-09-21T12:52:46.378Z,59.41
2022-09-21T12:53:50.590Z,67.21